createdAt,value
2018-11-04T00:01:09.429Z,23.67
2018-11-04T00:03:43.760Z,19.70
2018-11-04T00:06:18.731Z,18.83
2018-11-04T00:08:54.216Z,18.07
2018-11-04T00:11:28.700Z,22.70
2018-11-04T00:14:04.580Z,21.60
2018-11-04T00:16:39.620Z,19.17
2018-11-04T00:19:14.906Z,18.80
2018-11-04T00:21:50.346Z,17.33
2018-11-04T00:24:25.517Z,19.00
2018-11-04T00:27:00.500Z,20.47
2018-11-04T00:29:35.684Z,19.20
2018-11-04T00:32:10.204Z,21.67
2018-11-04T00:34:45.247Z,20.97
2018-11-04T00:37:19.699Z,20.17
2018-11-04T00:39:54.909Z,20.70
2018-11-04T00:42:30.633Z,23.63
2018-11-04T00:45:07.345Z,22.83
2018-11-04T00:47:41.706Z,18.23
2018-11-04T00:50:21.690Z,20.50
2018-11-04T00:52:56.028Z,18.17
2018-11-04T00:55:30.415Z,20.07
2018-11-04T00:58:04.713Z,22.90
2018-11-04T01:00:39.032Z,18.80
2018-11-04T01:03:24.623Z,20.03
2018-11-04T01:05:59.604Z,17.90
2018-11-04T01:08:34.835Z,18.60
2018-11-04T01:11:09.199Z,21.60
2018-11-04T01:13:44.233Z,20.33
2018-11-04T01:16:19.250Z,27.47
2018-11-04T01:18:53.664Z,18.80
2018-11-04T01:21:28.084Z,22.00
2018-11-04T01:24:03.735Z,22.33
2018-11-04T01:26:38.064Z,18.77
2018-11-04T01:29:13.125Z,17.10
2018-11-04T01:31:47.527Z,21.10
2018-11-04T01:34:22.037Z,19.50
2018-11-04T01:36:56.563Z,15.13
2018-11-04T01:39:32.068Z,15.97
2018-11-04T01:42:07.407Z,18.53
2018-11-04T01:44:42.007Z,18.63
2018-11-04T01:47:17.243Z,16.70
2018-11-04T01:49:51.789Z,17.07
2018-11-04T01:52:26.752Z,17.97
2018-11-04T01:55:01.887Z,21.20
2018-11-04T01:57:36.356Z,15.57
2018-11-04T02:00:13.419Z,17.00
2018-11-04T02:02:48.299Z,16.67
2018-11-04T02:05:23.566Z,17.23
2018-11-04T02:07:57.883Z,17.73
2018-11-04T02:10:32.743Z,20.27
2018-11-04T02:13:07.801Z,15.50
2018-11-04T02:15:43.544Z,19.40
2018-11-04T02:18:18.783Z,20.50
2018-11-04T02:20:53.259Z,19.83
2018-11-04T02:23:28.607Z,16.93
2018-11-04T02:26:03.036Z,16.27
2018-11-04T02:28:38.192Z,19.63
2018-11-04T02:31:12.701Z,16.30
2018-11-04T02:33:47.153Z,14.27
2018-11-04T02:36:22.559Z,18.00
2018-11-04T02:38:57.488Z,15.70
2018-11-04T02:41:32.380Z,20.50
2018-11-04T02:44:07.399Z,18.83
2018-11-04T02:46:42.635Z,15.60
2018-11-04T02:49:17.067Z,16.73
2018-11-04T02:51:52.016Z,15.87
2018-11-04T02:54:26.579Z,13.97
2018-11-04T02:57:01.206Z,16.23
2018-11-04T02:59:35.701Z,13.20
2018-11-04T03:02:10.946Z,15.97
2018-11-04T03:04:46.065Z,17.83
2018-11-04T03:07:21.238Z,15.97
2018-11-04T03:09:56.303Z,13.93
2018-11-04T03:12:30.684Z,15.63
2018-11-04T03:15:05.185Z,18.37
2018-11-04T03:17:40.210Z,18.30
2018-11-04T03:20:14.571Z,15.17
2018-11-04T03:22:50.156Z,15.60
2018-11-04T03:25:24.591Z,14.27
2018-11-04T03:27:59.783Z,13.83
2018-11-04T03:30:34.247Z,11.90
2018-11-04T03:33:09.307Z,14.37
2018-11-04T03:35:43.867Z,14.17
2018-11-04T03:38:18.342Z,14.10
2018-11-04T03:40:52.734Z,13.60
2018-11-04T03:43:27.712Z,11.97
2018-11-04T03:46:02.277Z,13.73
2018-11-04T03:48:37.628Z,11.77
2018-11-04T03:51:14.487Z,17.00
2018-11-04T03:53:48.884Z,16.50
2018-11-04T03:56:23.243Z,14.20
2018-11-04T03:58:57.759Z,14.27
2018-11-04T04:01:32.327Z,13.50
2018-11-04T04:04:07.632Z,14.33
2018-11-04T04:06:42.788Z,11.10
2018-11-04T04:09:17.939Z,11.60
2018-11-04T04:11:52.481Z,12.43
2018-11-04T04:14:26.807Z,11.13
2018-11-04T04:17:01.739Z,14.77
2018-11-04T04:19:36.063Z,14.37
2018-11-04T04:22:10.513Z,12.17
2018-11-04T04:24:45.672Z,14.90
2018-11-04T04:27:20.155Z,12.87
2018-11-04T04:29:55.460Z,14.00
2018-11-04T04:32:30.154Z,12.47
2018-11-04T04:35:05.126Z,10.93
2018-11-04T04:37:40.847Z,13.67
2018-11-04T04:40:16.139Z,14.37
2018-11-04T04:42:51.222Z,13.40
2018-11-04T04:45:25.580Z,10.60
2018-11-04T04:48:00.759Z,13.10
2018-11-04T04:50:36.200Z,9.80
2018-11-04T04:53:10.935Z,12.73
2018-11-04T04:55:45.468Z,12.70
2018-11-04T04:58:21.120Z,12.30
2018-11-04T05:00:55.644Z,8.90
2018-11-04T05:03:30.146Z,9.50
2018-11-04T05:06:05.677Z,11.50
2018-11-04T05:08:41.068Z,10.63
2018-11-04T05:11:17.750Z,11.70
2018-11-04T05:13:53.400Z,11.77
2018-11-04T05:16:28.631Z,12.97
2018-11-04T05:19:03.811Z,10.50
2018-11-04T05:21:38.084Z,10.23
2018-11-04T05:24:13.259Z,9.17
2018-11-04T05:26:47.758Z,9.60
2018-11-04T05:29:22.702Z,10.60
2018-11-04T05:31:57.649Z,9.80
2018-11-04T05:34:32.366Z,9.03
2018-11-04T05:37:06.844Z,9.23
2018-11-04T05:39:41.200Z,9.80
2018-11-04T05:42:16.931Z,8.03
2018-11-04T05:44:51.291Z,8.43
2018-11-04T05:47:26.263Z,7.90
2018-11-04T05:50:01.427Z,9.40
2018-11-04T05:52:36.816Z,7.37
2018-11-04T05:55:11.325Z,10.73
2018-11-04T05:57:46.463Z,6.73
2018-11-04T06:00:20.814Z,8.07
2018-11-04T06:02:55.391Z,9.23
2018-11-04T06:05:30.863Z,12.43
2018-11-04T06:08:05.835Z,8.60
2018-11-04T06:10:40.868Z,9.40
2018-11-04T06:13:15.407Z,8.37
2018-11-04T06:15:50.855Z,8.63
2018-11-04T06:18:26.627Z,8.67
2018-11-04T06:21:02.059Z,10.70
2018-11-04T06:23:37.227Z,8.63
2018-11-04T06:26:11.803Z,11.80
2018-11-04T06:28:46.933Z,10.80
2018-11-04T06:31:22.119Z,6.90
2018-11-04T06:33:56.523Z,8.10
2018-11-04T06:36:30.980Z,11.63
2018-11-04T06:39:07.212Z,10.53
2018-11-04T06:41:41.583Z,9.70
2018-11-04T06:44:16.779Z,7.10
2018-11-04T06:46:52.168Z,8.00
2018-11-04T06:49:26.935Z,8.83
2018-11-04T06:52:01.331Z,7.73
2018-11-04T06:54:35.852Z,8.27
2018-11-04T06:57:10.839Z,8.23
2018-11-04T06:59:45.530Z,9.37
2018-11-04T07:02:19.956Z,9.60
2018-11-04T07:04:55.223Z,8.63
2018-11-04T07:07:29.994Z,8.40
2018-11-04T07:10:08.296Z,6.90
2018-11-04T07:12:50.909Z,8.23
2018-11-04T07:15:25.968Z,7.70
2018-11-04T07:18:01.551Z,8.33
2018-11-04T07:20:42.131Z,10.50
2018-11-04T07:23:17.739Z,6.40
2018-11-04T07:25:52.212Z,9.33
2018-11-04T07:34:33.870Z,6.27
2018-11-04T07:37:08.628Z,6.40
2018-11-04T07:39:43.950Z,9.07
2018-11-04T07:42:20.101Z,9.10
2018-11-04T07:44:57.324Z,7.30
2018-11-04T07:47:33.112Z,8.27
2018-11-04T07:50:13.658Z,9.50
2018-11-04T07:52:50.673Z,7.43
2018-11-04T07:55:25.727Z,6.80
2018-11-04T07:58:00.601Z,7.07
2018-11-04T08:00:42.444Z,8.00
2018-11-04T08:03:17.412Z,7.40
2018-11-04T08:05:54.504Z,7.10
2018-11-04T08:08:30.792Z,6.40
2018-11-04T08:11:05.851Z,8.00
2018-11-04T08:13:40.534Z,10.07
2018-11-04T08:16:15.738Z,7.67
2018-11-04T08:18:51.238Z,11.60
2018-11-04T08:21:26.780Z,9.13
2018-11-04T08:24:02.306Z,6.83
2018-11-04T08:26:37.439Z,6.90
2018-11-04T08:29:12.457Z,8.03
2018-11-04T08:31:47.589Z,9.27
2018-11-04T08:34:22.275Z,9.33
2018-11-04T08:36:56.715Z,7.77
2018-11-04T08:39:32.091Z,9.80
2018-11-04T08:42:07.492Z,5.70
2018-11-04T08:44:42.048Z,6.60
2018-11-04T08:47:17.836Z,7.80
2018-11-04T08:49:52.864Z,8.23
2018-11-04T08:52:27.580Z,9.60
2018-11-04T08:55:02.598Z,8.90
2018-11-04T08:59:02.105Z,7.00
2018-11-04T09:01:36.522Z,6.70
2018-11-04T09:04:11.875Z,5.27
2018-11-04T09:06:47.206Z,5.60
2018-11-04T09:09:22.596Z,7.60
2018-11-04T09:11:57.279Z,6.97
2018-11-04T09:14:39.176Z,7.70
2018-11-04T09:17:14.742Z,7.90
2018-11-04T09:19:49.456Z,6.00
2018-11-04T09:22:24.735Z,7.17
2018-11-04T09:24:59.746Z,8.10
2018-11-04T09:27:35.527Z,8.20
2018-11-04T09:30:13.629Z,9.93
2018-11-04T09:32:48.988Z,5.90
2018-11-04T09:35:24.364Z,7.77
2018-11-04T09:38:05.871Z,9.83
2018-11-04T09:40:41.508Z,7.10
2018-11-04T09:43:16.728Z,7.53
2018-11-04T09:45:51.380Z,8.77
2018-11-04T09:48:26.504Z,7.80
2018-11-04T09:51:01.949Z,7.00
2018-11-04T09:53:37.004Z,7.10
2018-11-04T09:56:14.275Z,7.43
2018-11-04T09:58:49.528Z,8.80
2018-11-04T10:01:24.298Z,8.63
2018-11-04T10:03:59.030Z,9.97
2018-11-04T10:06:34.231Z,6.73
2018-11-04T10:09:10.737Z,8.27
2018-11-04T10:11:45.871Z,7.90
2018-11-04T10:14:20.611Z,7.13
2018-11-04T10:16:56.060Z,8.30
2018-11-04T10:19:30.975Z,7.53
2018-11-04T10:22:06.115Z,7.50
2018-11-04T10:24:43.420Z,7.10
2018-11-04T10:27:18.908Z,8.30
2018-11-04T10:29:54.560Z,6.30
2018-11-04T10:32:29.139Z,6.80
2018-11-04T10:35:05.264Z,8.30
2018-11-04T10:37:40.588Z,9.87
2018-11-04T10:40:15.606Z,8.90
2018-11-04T10:42:50.753Z,8.53
2018-11-04T10:45:26.303Z,8.47
2018-11-04T10:48:02.221Z,8.63
2018-11-04T10:53:18.428Z,6.83
2018-11-04T10:55:53.430Z,6.90
2018-11-04T10:58:28.105Z,7.90
2018-11-04T11:01:08.830Z,7.83
2018-11-04T11:03:44.455Z,7.90
2018-11-04T11:06:19.598Z,6.37
2018-11-04T11:08:57.023Z,6.63
2018-11-04T11:12:56.330Z,8.67
2018-11-04T11:15:31.176Z,9.50
2018-11-04T11:18:06.432Z,7.40
2018-11-04T11:23:24.515Z,7.20
2018-11-04T11:25:59.381Z,6.43
2018-11-04T11:28:35.035Z,6.03
2018-11-04T11:31:10.532Z,9.73
2018-11-04T11:33:52.957Z,6.70
2018-11-04T11:36:28.169Z,7.57
2018-11-04T11:39:02.829Z,9.07
2018-11-04T11:41:37.795Z,7.50
2018-11-04T11:44:12.970Z,7.93
2018-11-04T11:46:48.514Z,7.17
2018-11-04T11:49:25.104Z,5.77
2018-11-04T11:52:00.672Z,8.53
2018-11-04T11:54:35.431Z,9.40
2018-11-04T11:57:09.923Z,7.40
2018-11-04T11:59:45.418Z,7.23
2018-11-04T12:02:20.711Z,9.10
2018-11-04T12:04:55.073Z,9.63
2018-11-04T12:07:30.302Z,5.87
2018-11-04T12:10:07.042Z,7.87
2018-11-04T12:12:42.222Z,5.60
2018-11-04T12:15:16.596Z,6.67
2018-11-04T12:17:51.706Z,6.97
2018-11-04T12:20:26.130Z,6.40
2018-11-04T12:23:02.012Z,7.53
2018-11-04T12:25:36.479Z,9.03
2018-11-04T12:28:11.604Z,8.30
2018-11-04T12:30:46.030Z,6.27
2018-11-04T12:33:20.371Z,6.60
2018-11-04T12:35:54.871Z,7.13
2018-11-04T12:38:29.975Z,10.23
2018-11-04T12:41:04.210Z,11.60
2018-11-04T12:43:39.159Z,8.17
2018-11-04T12:46:19.988Z,8.07
2018-11-04T12:48:55.763Z,7.70
2018-11-04T12:51:30.877Z,5.93
2018-11-04T12:56:36.156Z,5.13
2018-11-04T12:59:11.300Z,6.00
2018-11-04T13:01:45.927Z,9.30
2018-11-04T13:11:19.623Z,7.10
2018-11-04T13:13:54.079Z,7.87
2018-11-04T13:16:29.160Z,6.27
2018-11-04T13:19:04.631Z,6.37
2018-11-04T13:21:38.991Z,6.43
2018-11-04T13:24:14.275Z,6.93
2018-11-04T13:26:49.133Z,9.80
2018-11-04T13:29:24.096Z,7.33
2018-11-04T13:31:58.599Z,11.70
2018-11-04T13:34:32.987Z,7.67
2018-11-04T13:37:07.704Z,6.50
2018-11-04T13:39:42.093Z,8.03
2018-11-04T13:42:17.259Z,5.37
2018-11-04T13:44:51.611Z,7.83
2018-11-04T13:47:26.520Z,5.50
2018-11-04T13:50:01.584Z,7.63
2018-11-04T13:52:36.619Z,6.03
2018-11-04T13:55:11.092Z,7.27
2018-11-04T13:57:46.247Z,8.90
2018-11-04T14:00:20.662Z,8.07
2018-11-04T14:02:55.996Z,6.80
2018-11-04T14:05:31.421Z,6.23
2018-11-04T14:08:05.958Z,7.83
2018-11-04T14:10:41.421Z,8.70
2018-11-04T14:13:15.913Z,5.77
2018-11-04T14:15:52.348Z,7.77
2018-11-04T14:18:27.731Z,7.30
2018-11-04T14:21:02.391Z,6.67
2018-11-04T14:23:38.118Z,7.33
2018-11-04T14:26:12.651Z,6.57
2018-11-04T14:28:47.884Z,6.40
2018-11-04T14:31:23.415Z,8.87
2018-11-04T14:33:57.700Z,7.60
2018-11-04T14:36:32.547Z,8.10
2018-11-04T14:39:08.191Z,7.17
2018-11-04T14:41:42.619Z,9.33
2018-11-04T14:44:17.816Z,6.60
2018-11-04T14:46:52.869Z,6.57
2018-11-04T14:49:28.191Z,6.50
2018-11-04T14:52:03.556Z,6.97
2018-11-04T14:54:38.085Z,9.57
2018-11-04T14:57:13.907Z,7.27
2018-11-04T14:59:48.397Z,9.43
2018-11-04T15:02:22.892Z,6.23
2018-11-04T15:04:57.236Z,6.73
2018-11-04T15:07:32.566Z,8.00
2018-11-04T15:10:09.612Z,7.77
2018-11-04T15:12:44.459Z,7.40
2018-11-04T15:15:19.035Z,8.33
2018-11-04T15:18:01.857Z,8.50
2018-11-04T15:20:36.151Z,7.23
2018-11-04T15:23:13.573Z,6.90
2018-11-04T15:25:48.037Z,6.23
2018-11-04T15:28:23.372Z,7.70
2018-11-04T15:30:57.800Z,9.00
2018-11-04T15:33:32.472Z,7.50
2018-11-04T15:36:07.834Z,6.53
2018-11-04T15:38:43.166Z,7.80
2018-11-04T15:41:18.015Z,8.40
2018-11-04T15:43:53.251Z,7.50
2018-11-04T15:46:28.951Z,6.20
2018-11-04T15:49:04.558Z,7.97
2018-11-04T15:51:40.880Z,7.10
2018-11-04T15:54:15.688Z,7.13
2018-11-04T15:56:51.483Z,6.43
2018-11-04T15:59:27.411Z,7.50
2018-11-04T16:02:02.140Z,6.27
2018-11-04T16:04:44.547Z,6.77
2018-11-04T16:07:13.280Z,7.07
2018-11-04T16:09:48.723Z,7.30
2018-11-04T16:12:23.393Z,9.90
2018-11-04T16:14:58.305Z,8.10
2018-11-04T16:17:34.213Z,7.10
2018-11-04T16:22:56.065Z,7.87
2018-11-04T16:25:32.486Z,9.17
2018-11-04T16:28:09.103Z,7.67
2018-11-04T16:30:45.875Z,12.60
2018-11-04T16:33:23.198Z,13.63
2018-11-04T16:35:59.299Z,7.23
2018-11-04T16:38:35.871Z,8.70
2018-11-04T16:41:10.997Z,6.17
2018-11-04T16:43:46.623Z,7.00
2018-11-04T16:46:23.611Z,8.83
2018-11-04T16:49:00.929Z,8.20
2018-11-04T16:51:38.123Z,7.13
2018-11-04T16:54:13.516Z,6.63
2018-11-04T16:56:48.979Z,8.50
2018-11-04T16:59:27.193Z,7.73
2018-11-04T17:02:02.675Z,8.77
2018-11-04T17:04:37.489Z,6.43
2018-11-04T17:07:12.487Z,9.00
2018-11-04T17:09:48.356Z,8.53
2018-11-04T17:12:25.364Z,7.50
2018-11-04T17:18:06.265Z,8.27
2018-11-04T17:20:41.771Z,8.10
2018-11-04T17:23:21.116Z,7.57
2018-11-04T17:25:56.259Z,7.00
2018-11-04T17:28:32.631Z,7.90
2018-11-04T17:31:07.206Z,9.40
2018-11-04T18:07:49.314Z,9.63
2018-11-04T18:10:25.739Z,9.57
2018-11-04T18:13:03.116Z,10.70
2018-11-04T18:15:38.175Z,11.00
2018-11-04T18:18:14.938Z,9.73
2018-11-04T18:20:49.476Z,12.70
2018-11-04T18:23:25.821Z,8.33
2018-11-04T18:26:01.264Z,12.03
2018-11-04T18:28:37.653Z,9.30
2018-11-04T18:31:12.443Z,13.00
2018-11-04T18:33:47.947Z,10.27
2018-11-04T18:36:23.395Z,8.73
2018-11-04T18:38:58.017Z,11.43
2018-11-04T18:41:32.415Z,10.33
2018-11-04T18:44:08.296Z,8.67
2018-11-04T18:46:44.305Z,9.17
2018-11-04T18:49:20.675Z,9.03
2018-11-04T18:51:57.195Z,13.80
2018-11-04T18:54:39.317Z,12.30
2018-11-04T18:57:14.211Z,12.63
2018-11-04T18:59:49.210Z,12.10
2018-11-04T19:02:24.152Z,11.43
2018-11-04T19:04:59.387Z,11.50
2018-11-04T19:07:35.635Z,10.40
2018-11-04T19:10:13.764Z,10.30
2018-11-04T19:12:49.439Z,9.63
2018-11-04T19:15:23.869Z,9.90
2018-11-04T19:18:06.458Z,11.30
2018-11-04T19:20:40.969Z,9.30
2018-11-04T19:23:26.351Z,13.40
2018-11-04T19:26:02.871Z,12.57
2018-11-04T19:28:38.887Z,23.73
2018-11-04T19:31:13.369Z,14.23
2018-11-04T19:33:48.760Z,11.83
2018-11-04T19:36:23.322Z,14.77
2018-11-04T19:38:57.846Z,14.13
2018-11-04T19:41:33.940Z,11.97
2018-11-04T19:44:09.519Z,12.53
2018-11-04T19:46:45.984Z,13.07
2018-11-04T19:49:22.567Z,14.17
2018-11-04T19:51:57.330Z,11.07
2018-11-04T19:54:38.579Z,17.60
2018-11-04T19:57:13.344Z,14.30
2018-11-04T19:59:49.688Z,12.60
2018-11-04T20:02:25.524Z,12.20
2018-11-04T20:05:00.480Z,13.90
2018-11-04T20:13:20.608Z,13.87
2018-11-04T20:16:08.692Z,12.33
2018-11-04T20:18:48.617Z,11.53
2018-11-04T20:21:23.760Z,13.80
2018-11-04T20:24:13.205Z,11.87
2018-11-04T20:26:49.263Z,11.30
2018-11-04T20:29:25.217Z,12.50
2018-11-04T20:32:09.595Z,14.90
2018-11-04T20:34:45.256Z,12.07
2018-11-04T20:37:21.202Z,10.80
2018-11-04T20:40:02.041Z,11.57
2018-11-04T20:42:38.983Z,11.33
2018-11-04T20:45:16.908Z,14.17
2018-11-04T20:47:59.968Z,10.07
2018-11-04T20:50:44.190Z,12.63
2018-11-04T20:53:18.843Z,11.70
2018-11-04T20:58:42.249Z,12.80
2018-11-04T21:01:17.855Z,12.27
2018-11-04T21:03:53.470Z,12.53
2018-11-04T21:06:34.274Z,13.43
2018-11-04T21:09:13.060Z,13.30
2018-11-04T21:11:49.342Z,11.70
2018-11-04T21:14:24.981Z,13.23
2018-11-04T21:17:01.063Z,11.80
2018-11-04T21:19:37.109Z,13.10
2018-11-04T21:22:12.111Z,13.00
2018-11-04T21:24:48.710Z,10.70
2018-11-04T21:27:23.771Z,13.23
2018-11-04T21:30:00.815Z,11.40
2018-11-04T21:32:37.152Z,13.23
2018-11-04T21:35:11.795Z,12.13
2018-11-04T21:37:47.035Z,13.50
2018-11-04T21:40:22.044Z,14.13
2018-11-04T21:42:57.499Z,14.93
2018-11-04T21:45:32.336Z,14.63
2018-11-04T21:48:07.668Z,15.03
2018-11-04T21:50:43.053Z,14.27
2018-11-04T21:54:42.959Z,16.10
2018-11-04T21:57:18.740Z,11.30
2018-11-04T21:59:54.122Z,16.80
2018-11-04T22:02:29.284Z,16.53
2018-11-04T22:05:05.260Z,11.87
2018-11-04T22:07:42.241Z,12.67
2018-11-04T22:10:18.138Z,14.00
2018-11-04T22:20:01.976Z,12.70
2018-11-04T22:22:37.627Z,18.30
2018-11-04T22:25:12.915Z,14.80
2018-11-04T22:27:55.712Z,15.57
2018-11-04T22:30:31.015Z,16.97
2018-11-04T22:33:05.908Z,15.43
2018-11-04T22:35:41.352Z,14.20
2018-11-04T22:38:16.491Z,13.60
2018-11-04T22:40:51.475Z,17.37
2018-11-04T22:43:27.113Z,17.53
2018-11-04T22:46:02.056Z,19.13
2018-11-04T22:48:37.407Z,13.07
2018-11-04T22:51:12.124Z,13.07
2018-11-04T22:53:46.832Z,16.00
2018-11-04T22:56:21.772Z,15.77
2018-11-04T22:58:57.411Z,16.97
2018-11-04T23:01:33.117Z,15.37
2018-11-04T23:04:08.118Z,13.90
2018-11-04T23:08:08.482Z,14.97
2018-11-04T23:10:44.026Z,16.70
2018-11-04T23:13:19.216Z,19.03
2018-11-04T23:20:04.416Z,16.60
2018-11-04T23:22:39.628Z,14.70
2018-11-04T23:25:15.641Z,15.80
2018-11-04T23:27:56.288Z,18.13
2018-11-04T23:30:31.424Z,16.00
2018-11-04T23:35:59.972Z,15.57
2018-11-04T23:38:35.652Z,17.83
2018-11-04T23:41:10.474Z,15.50
2018-11-04T23:43:46.304Z,14.03
2018-11-04T23:46:24.467Z,15.37
2018-11-04T23:48:59.888Z,19.90
2018-11-04T23:51:34.827Z,19.80
2018-11-04T23:54:10.100Z,14.67
2018-11-04T23:56:44.904Z,20.80
2018-11-04T23:59:20.399Z,20.20
